sensor_id;sensor_type;location;lat;lon;timestamp;P1;durP1;ratioP1;P2;durP2;ratioP2
17345;SDS011;8790;53.590;10.002;2023-09-18T00:01:42;6.53;;;5.65;;
17345;SDS011;8790;53.590;10.002;2023-09-18T00:04:15;6.18;;;5.35;;
17345;SDS011;8790;53.590;10.002;2023-09-18T00:06:46;6.90;;;6.18;;
17345;SDS011;8790;53.590;10.002;2023-09-18T00:09:18;5.93;;;5.40;;
17345;SDS011;8790;53.590;10.002;2023-09-18T00:11:49;6.45;;;5.85;;
17345;SDS011;8790;53.590;10.002;2023-09-18T00:14:22;6.30;;;5.75;;
17345;SDS011;8790;53.590;10.002;2023-09-18T00:16:54;6.65;;;6.05;;
17345;SDS011;8790;53.590;10.002;2023-09-18T00:19:28;6.40;;;5.80;;
17345;SDS011;8790;53.590;10.002;2023-09-18T00:22:01;6.00;;;5.50;;
17345;SDS011;8790;53.590;10.002;2023-09-18T00:24:32;5.85;;;5.35;;
17345;SDS011;8790;53.590;10.002;2023-09-18T00:27:04;6.95;;;6.25;;
17345;SDS011;8790;53.590;10.002;2023-09-18T00:29:35;6.35;;;5.75;;
17345;SDS011;8790;53.590;10.002;2023-09-18T00:32:07;6.43;;;5.82;;
17345;SDS011;8790;53.590;10.002;2023-09-18T00:34:40;6.30;;;5.70;;
17345;SDS011;8790;53.590;10.002;2023-09-18T00:37:11;6.30;;;5.70;;
17345;SDS011;8790;53.590;10.002;2023-09-18T00:39:42;6.32;;;5.72;;
17345;SDS011;8790;53.590;10.002;2023-09-18T00:42:14;7.43;;;5.57;;
17345;SDS011;8790;53.590;10.002;2023-09-18T00:44:48;6.57;;;5.97;;
17345;SDS011;8790;53.590;10.002;2023-09-18T00:47:19;6.90;;;6.10;;
17345;SDS011;8790;53.590;10.002;2023-09-18T00:49:52;7.32;;;5.43;;
17345;SDS011;8790;53.590;10.002;2023-09-18T00:52:25;6.57;;;5.70;;
17345;SDS011;8790;53.590;10.002;2023-09-18T00:54:57;6.55;;;5.95;;
17345;SDS011;8790;53.590;10.002;2023-09-18T00:57:30;6.40;;;5.80;;
17345;SDS011;8790;53.590;10.002;2023-09-18T01:00:02;6.93;;;6.22;;
17345;SDS011;8790;53.590;10.002;2023-09-18T01:02:35;7.53;;;5.80;;
17345;SDS011;8790;53.590;10.002;2023-09-18T01:05:08;6.10;;;5.47;;
17345;SDS011;8790;53.590;10.002;2023-09-18T01:07:39;6.30;;;5.70;;
17345;SDS011;8790;53.590;10.002;2023-09-18T01:10:11;6.53;;;5.68;;
17345;SDS011;8790;53.590;10.002;2023-09-18T01:12:46;6.13;;;5.53;;
17345;SDS011;8790;53.590;10.002;2023-09-18T01:15:20;6.40;;;5.80;;
17345;SDS011;8790;53.590;10.002;2023-09-18T01:17:54;8.00;;;5.88;;
17345;SDS011;8790;53.590;10.002;2023-09-18T01:20:27;6.80;;;6.10;;
17345;SDS011;8790;53.590;10.002;2023-09-18T01:23:00;6.93;;;6.22;;
17345;SDS011;8790;53.590;10.002;2023-09-18T01:25:31;6.78;;;6.18;;
17345;SDS011;8790;53.590;10.002;2023-09-18T01:28:03;6.32;;;5.72;;
17345;SDS011;8790;53.590;10.002;2023-09-18T01:30:35;6.35;;;5.75;;
17345;SDS011;8790;53.590;10.002;2023-09-18T01:33:08;5.90;;;5.40;;
17345;SDS011;8790;53.590;10.002;2023-09-18T01:35:40;6.32;;;5.72;;
17345;SDS011;8790;53.590;10.002;2023-09-18T01:38:14;6.90;;;6.20;;
17345;SDS011;8790;53.590;10.002;2023-09-18T01:40:45;6.85;;;6.25;;
17345;SDS011;8790;53.590;10.002;2023-09-18T01:43:17;6.90;;;6.20;;
17345;SDS011;8790;53.590;10.002;2023-09-18T01:45:48;7.68;;;6.50;;
17345;SDS011;8790;53.590;10.002;2023-09-18T01:48:20;6.57;;;5.97;;
17345;SDS011;8790;53.590;10.002;2023-09-18T01:50:52;5.82;;;5.32;;
17345;SDS011;8790;53.590;10.002;2023-09-18T01:53:25;6.60;;;5.72;;
17345;SDS011;8790;53.590;10.002;2023-09-18T01:55:56;7.05;;;5.93;;
17345;SDS011;8790;53.590;10.002;2023-09-18T01:58:27;6.70;;;6.03;;
17345;SDS011;8790;53.590;10.002;2023-09-18T02:01:00;6.38;;;5.78;;
17345;SDS011;8790;53.590;10.002;2023-09-18T02:03:31;6.70;;;6.10;;
17345;SDS011;8790;53.590;10.002;2023-09-18T02:06:03;6.70;;;6.10;;
17345;SDS011;8790;53.590;10.002;2023-09-18T02:08:36;6.30;;;5.70;;
17345;SDS011;8790;53.590;10.002;2023-09-18T02:11:07;6.38;;;5.78;;
17345;SDS011;8790;53.590;10.002;2023-09-18T02:13:39;6.18;;;5.57;;
17345;SDS011;8790;53.590;10.002;2023-09-18T02:16:10;6.53;;;5.93;;
17345;SDS011;8790;53.590;10.002;2023-09-18T02:18:41;6.15;;;5.60;;
17345;SDS011;8790;53.590;10.002;2023-09-18T02:21:18;7.53;;;5.72;;
17345;SDS011;8790;53.590;10.002;2023-09-18T02:23:51;6.80;;;6.03;;
17345;SDS011;8790;53.590;10.002;2023-09-18T02:26:24;6.55;;;5.95;;
17345;SDS011;8790;53.590;10.002;2023-09-18T02:28:57;6.82;;;6.22;;
17345;SDS011;8790;53.590;10.002;2023-09-18T02:31:29;7.50;;;6.30;;
17345;SDS011;8790;53.590;10.002;2023-09-18T02:34:01;6.47;;;5.88;;
17345;SDS011;8790;53.590;10.002;2023-09-18T02:36:32;6.82;;;6.22;;
17345;SDS011;8790;53.590;10.002;2023-09-18T02:39:05;7.13;;;6.20;;
17345;SDS011;8790;53.590;10.002;2023-09-18T02:41:36;7.45;;;6.32;;
17345;SDS011;8790;53.590;10.002;2023-09-18T02:44:08;6.95;;;6.35;;
17345;SDS011;8790;53.590;10.002;2023-09-18T02:46:40;6.68;;;5.95;;
17345;SDS011;8790;53.590;10.002;2023-09-18T02:49:15;6.53;;;5.93;;
17345;SDS011;8790;53.590;10.002;2023-09-18T02:51:46;6.53;;;5.93;;
17345;SDS011;8790;53.590;10.002;2023-09-18T02:54:21;6.60;;;6.00;;
17345;SDS011;8790;53.590;10.002;2023-09-18T02:56:52;6.60;;;5.93;;
17345;SDS011;8790;53.590;10.002;2023-09-18T02:59:24;7.00;;;6.40;;
17345;SDS011;8790;53.590;10.002;2023-09-18T03:01:57;6.55;;;5.95;;
17345;SDS011;8790;53.590;10.002;2023-09-18T03:04:28;6.82;;;6.13;;
17345;SDS011;8790;53.590;10.002;2023-09-18T03:07:00;7.07;;;6.40;;
17345;SDS011;8790;53.590;10.002;2023-09-18T03:09:33;6.75;;;6.15;;
17345;SDS011;8790;53.590;10.002;2023-09-18T03:12:06;6.78;;;6.18;;
17345;SDS011;8790;53.590;10.002;2023-09-18T03:14:38;7.32;;;6.63;;
17345;SDS011;8790;53.590;10.002;2023-09-18T03:17:10;7.18;;;6.47;;
17345;SDS011;8790;53.590;10.002;2023-09-18T03:19:42;7.60;;;6.30;;
17345;SDS011;8790;53.590;10.002;2023-09-18T03:22:13;6.93;;;6.28;;
17345;SDS011;8790;53.590;10.002;2023-09-18T03:24:46;7.50;;;6.55;;
17345;SDS011;8790;53.590;10.002;2023-09-18T03:27:17;6.70;;;6.10;;
17345;SDS011;8790;53.590;10.002;2023-09-18T03:29:49;7.63;;;6.82;;
17345;SDS011;8790;53.590;10.002;2023-09-18T03:32:20;7.90;;;6.90;;
17345;SDS011;8790;53.590;10.002;2023-09-18T03:34:52;6.75;;;6.10;;
17345;SDS011;8790;53.590;10.002;2023-09-18T03:37:24;7.25;;;6.53;;
17345;SDS011;8790;53.590;10.002;2023-09-18T03:39:56;6.75;;;6.15;;
17345;SDS011;8790;53.590;10.002;2023-09-18T03:42:28;7.63;;;6.82;;
17345;SDS011;8790;53.590;10.002;2023-09-18T03:45:00;6.57;;;5.95;;
17345;SDS011;8790;53.590;10.002;2023-09-18T03:47:31;7.35;;;6.70;;
17345;SDS011;8790;53.590;10.002;2023-09-18T03:50:03;6.80;;;6.10;;
17345;SDS011;8790;53.590;10.002;2023-09-18T03:52:36;7.18;;;6.47;;
17345;SDS011;8790;53.590;10.002;2023-09-18T03:55:10;7.15;;;6.45;;
17345;SDS011;8790;53.590;10.002;2023-09-18T03:57:41;8.77;;;6.55;;
17345;SDS011;8790;53.590;10.002;2023-09-18T04:00:13;8.68;;;6.50;;
17345;SDS011;8790;53.590;10.002;2023-09-18T04:02:46;7.53;;;6.82;;
17345;SDS011;8790;53.590;10.002;2023-09-18T04:05:17;7.20;;;6.35;;
17345;SDS011;8790;53.590;10.002;2023-09-18T04:07:49;7.25;;;6.55;;
17345;SDS011;8790;53.590;10.002;2023-09-18T04:10:22;7.45;;;6.75;;
17345;SDS011;8790;53.590;10.002;2023-09-18T04:12:54;7.43;;;6.72;;
17345;SDS011;8790;53.590;10.002;2023-09-18T04:15:25;7.82;;;6.53;;
17345;SDS011;8790;53.590;10.002;2023-09-18T04:17:57;7.05;;;6.35;;
17345;SDS011;8790;53.590;10.002;2023-09-18T04:20:29;7.78;;;7.05;;
17345;SDS011;8790;53.590;10.002;2023-09-18T04:23:20;7.82;;;7.03;;
17345;SDS011;8790;53.590;10.002;2023-09-18T04:25:54;8.68;;;6.63;;
17345;SDS011;8790;53.590;10.002;2023-09-18T04:28:26;9.45;;;7.15;;
17345;SDS011;8790;53.590;10.002;2023-09-18T04:30:58;7.80;;;6.90;;
17345;SDS011;8790;53.590;10.002;2023-09-18T04:33:31;9.00;;;7.15;;
17345;SDS011;8790;53.590;10.002;2023-09-18T04:36:02;7.85;;;7.05;;
17345;SDS011;8790;53.590;10.002;2023-09-18T04:38:34;7.40;;;6.70;;
17345;SDS011;8790;53.590;10.002;2023-09-18T04:41:07;7.25;;;6.55;;
17345;SDS011;8790;53.590;10.002;2023-09-18T04:43:41;7.95;;;6.85;;
17345;SDS011;8790;53.590;10.002;2023-09-18T04:46:12;7.55;;;6.78;;
17345;SDS011;8790;53.590;10.002;2023-09-18T04:48:44;7.90;;;6.88;;
17345;SDS011;8790;53.590;10.002;2023-09-18T04:51:16;7.60;;;6.90;;
17345;SDS011;8790;53.590;10.002;2023-09-18T04:53:47;8.20;;;7.40;;
17345;SDS011;8790;53.590;10.002;2023-09-18T04:56:20;8.05;;;7.10;;
17345;SDS011;8790;53.590;10.002;2023-09-18T04:58:51;8.45;;;7.65;;
17345;SDS011;8790;53.590;10.002;2023-09-18T05:01:23;9.27;;;7.35;;
17345;SDS011;8790;53.590;10.002;2023-09-18T05:03:55;8.13;;;7.32;;
17345;SDS011;8790;53.590;10.002;2023-09-18T05:06:27;7.85;;;7.15;;
17345;SDS011;8790;53.590;10.002;2023-09-18T05:08:58;8.02;;;7.10;;
17345;SDS011;8790;53.590;10.002;2023-09-18T05:11:31;7.30;;;6.60;;
17345;SDS011;8790;53.590;10.002;2023-09-18T05:14:02;7.45;;;6.72;;
17345;SDS011;8790;53.590;10.002;2023-09-18T05:16:35;8.75;;;7.90;;
17345;SDS011;8790;53.590;10.002;2023-09-18T05:19:06;8.45;;;7.38;;
17345;SDS011;8790;53.590;10.002;2023-09-18T05:21:38;8.18;;;7.35;;
17345;SDS011;8790;53.590;10.002;2023-09-18T05:24:09;7.88;;;6.93;;
17345;SDS011;8790;53.590;10.002;2023-09-18T05:26:42;7.75;;;7.03;;
17345;SDS011;8790;53.590;10.002;2023-09-18T05:29:13;7.70;;;7.00;;
17345;SDS011;8790;53.590;10.002;2023-09-18T05:31:45;8.38;;;7.47;;
17345;SDS011;8790;53.590;10.002;2023-09-18T05:34:17;8.40;;;7.60;;
17345;SDS011;8790;53.590;10.002;2023-09-18T05:36:49;8.35;;;6.97;;
17345;SDS011;8790;53.590;10.002;2023-09-18T05:39:20;8.13;;;7.43;;
17345;SDS011;8790;53.590;10.002;2023-09-18T05:41:53;7.70;;;7.00;;
17345;SDS011;8790;53.590;10.002;2023-09-18T05:44:24;8.60;;;7.22;;
17345;SDS011;8790;53.590;10.002;2023-09-18T05:46:56;8.27;;;7.47;;
17345;SDS011;8790;53.590;10.002;2023-09-18T05:49:27;8.98;;;7.03;;
17345;SDS011;8790;53.590;10.002;2023-09-18T05:52:00;7.90;;;7.20;;
17345;SDS011;8790;53.590;10.002;2023-09-18T05:54:31;9.48;;;7.75;;
17345;SDS011;8790;53.590;10.002;2023-09-18T05:57:04;8.65;;;7.32;;
17345;SDS011;8790;53.590;10.002;2023-09-18T05:59:37;8.30;;;7.50;;
17345;SDS011;8790;53.590;10.002;2023-09-18T06:02:10;10.57;;;7.85;;
17345;SDS011;8790;53.590;10.002;2023-09-18T06:04:41;7.95;;;7.18;;
17345;SDS011;8790;53.590;10.002;2023-09-18T06:07:13;8.43;;;7.35;;
17345;SDS011;8790;53.590;10.002;2023-09-18T06:09:44;7.68;;;6.90;;
17345;SDS011;8790;53.590;10.002;2023-09-18T06:12:17;11.02;;;7.00;;
17345;SDS011;8790;53.590;10.002;2023-09-18T06:14:49;7.78;;;6.85;;
17345;SDS011;8790;53.590;10.002;2023-09-18T06:17:20;7.82;;;7.03;;
17345;SDS011;8790;53.590;10.002;2023-09-18T06:19:52;8.13;;;7.30;;
17345;SDS011;8790;53.590;10.002;2023-09-18T06:22:24;7.75;;;6.95;;
17345;SDS011;8790;53.590;10.002;2023-09-18T06:24:55;7.70;;;6.90;;
17345;SDS011;8790;53.590;10.002;2023-09-18T06:27:28;7.88;;;7.07;;
17345;SDS011;8790;53.590;10.002;2023-09-18T06:29:59;8.27;;;7.40;;
17345;SDS011;8790;53.590;10.002;2023-09-18T06:32:31;8.20;;;7.40;;
17345;SDS011;8790;53.590;10.002;2023-09-18T06:35:02;8.70;;;7.10;;
17345;SDS011;8790;53.590;10.002;2023-09-18T06:37:34;7.97;;;7.18;;
17345;SDS011;8790;53.590;10.002;2023-09-18T06:40:07;7.90;;;7.07;;
17345;SDS011;8790;53.590;10.002;2023-09-18T06:42:41;10.10;;;7.22;;
17345;SDS011;8790;53.590;10.002;2023-09-18T06:45:16;7.45;;;6.70;;
17345;SDS011;8790;53.590;10.002;2023-09-18T06:47:47;7.25;;;6.55;;
17345;SDS011;8790;53.590;10.002;2023-09-18T06:50:20;7.43;;;6.68;;
17345;SDS011;8790;53.590;10.002;2023-09-18T06:52:51;8.98;;;7.28;;
17345;SDS011;8790;53.590;10.002;2023-09-18T06:55:23;7.53;;;6.82;;
17345;SDS011;8790;53.590;10.002;2023-09-18T06:57:55;8.10;;;7.25;;
17345;SDS011;8790;53.590;10.002;2023-09-18T07:00:27;8.02;;;7.13;;
17345;SDS011;8790;53.590;10.002;2023-09-18T07:02:58;8.20;;;7.40;;
17345;SDS011;8790;53.590;10.002;2023-09-18T07:05:29;8.07;;;7.25;;
17345;SDS011;8790;53.590;10.002;2023-09-18T07:08:01;8.35;;;6.60;;
17345;SDS011;8790;53.590;10.002;2023-09-18T07:10:35;7.68;;;6.88;;
17345;SDS011;8790;53.590;10.002;2023-09-18T07:13:08;10.15;;;6.90;;
17345;SDS011;8790;53.590;10.002;2023-09-18T07:15:39;7.43;;;6.72;;
17345;SDS011;8790;53.590;10.002;2023-09-18T07:18:11;7.63;;;6.90;;
17345;SDS011;8790;53.590;10.002;2023-09-18T07:20:44;7.45;;;6.68;;
17345;SDS011;8790;53.590;10.002;2023-09-18T07:23:15;7.60;;;6.85;;
17345;SDS011;8790;53.590;10.002;2023-09-18T07:25:47;8.00;;;6.93;;
17345;SDS011;8790;53.590;10.002;2023-09-18T07:28:20;7.07;;;6.38;;
17345;SDS011;8790;53.590;10.002;2023-09-18T07:30:52;8.45;;;6.80;;
17345;SDS011;8790;53.590;10.002;2023-09-18T07:33:23;6.75;;;6.10;;
17345;SDS011;8790;53.590;10.002;2023-09-18T07:35:54;8.32;;;6.63;;
17345;SDS011;8790;53.590;10.002;2023-09-18T07:38:26;7.90;;;6.53;;
17345;SDS011;8790;53.590;10.002;2023-09-18T07:40:57;9.07;;;6.00;;
17345;SDS011;8790;53.590;10.002;2023-09-18T07:43:30;9.25;;;6.10;;
17345;SDS011;8790;53.590;10.002;2023-09-18T07:46:01;6.88;;;6.18;;
17345;SDS011;8790;53.590;10.002;2023-09-18T07:48:33;6.63;;;6.03;;
17345;SDS011;8790;53.590;10.002;2023-09-18T07:51:05;6.55;;;5.95;;
17345;SDS011;8790;53.590;10.002;2023-09-18T07:53:36;6.65;;;6.05;;
17345;SDS011;8790;53.590;10.002;2023-09-18T07:56:07;8.63;;;6.28;;
17345;SDS011;8790;53.590;10.002;2023-09-18T07:58:40;6.65;;;6.05;;
17345;SDS011;8790;53.590;10.002;2023-09-18T08:01:12;6.70;;;5.82;;
17345;SDS011;8790;53.590;10.002;2023-09-18T08:03:46;6.60;;;6.00;;
17345;SDS011;8790;53.590;10.002;2023-09-18T08:06:17;6.70;;;5.72;;
17345;SDS011;8790;53.590;10.002;2023-09-18T08:08:49;6.80;;;6.10;;
17345;SDS011;8790;53.590;10.002;2023-09-18T08:11:20;6.13;;;5.53;;
17345;SDS011;8790;53.590;10.002;2023-09-18T08:13:53;7.28;;;6.47;;
17345;SDS011;8790;53.590;10.002;2023-09-18T08:16:24;6.35;;;5.75;;
17345;SDS011;8790;53.590;10.002;2023-09-18T08:18:56;7.53;;;6.30;;
17345;SDS011;8790;53.590;10.002;2023-09-18T08:21:28;6.50;;;5.90;;
17345;SDS011;8790;53.590;10.002;2023-09-18T08:24:00;7.57;;;6.38;;
17345;SDS011;8790;53.590;10.002;2023-09-18T08:26:31;7.00;;;6.30;;
17345;SDS011;8790;53.590;10.002;2023-09-18T08:29:04;6.90;;;6.28;;
17345;SDS011;8790;53.590;10.002;2023-09-18T08:31:35;6.88;;;6.22;;
17345;SDS011;8790;53.590;10.002;2023-09-18T08:34:07;6.82;;;6.13;;
17345;SDS011;8790;53.590;10.002;2023-09-18T08:36:38;6.50;;;5.90;;
17345;SDS011;8790;53.590;10.002;2023-09-18T08:39:09;7.45;;;6.20;;
17345;SDS011;8790;53.590;10.002;2023-09-18T08:41:42;7.47;;;6.78;;
17345;SDS011;8790;53.590;10.002;2023-09-18T08:44:15;8.27;;;6.45;;
17345;SDS011;8790;53.590;10.002;2023-09-18T08:46:48;6.85;;;6.15;;
17345;SDS011;8790;53.590;10.002;2023-09-18T08:49:20;7.38;;;6.28;;
17345;SDS011;8790;53.590;10.002;2023-09-18T08:51:53;7.38;;;6.47;;
17345;SDS011;8790;53.590;10.002;2023-09-18T08:54:25;7.53;;;6.57;;
17345;SDS011;8790;53.590;10.002;2023-09-18T08:56:58;7.38;;;6.07;;
17345;SDS011;8790;53.590;10.002;2023-09-18T08:59:31;6.80;;;6.20;;
17345;SDS011;8790;53.590;10.002;2023-09-18T09:02:03;6.82;;;6.18;;
17345;SDS011;8790;53.590;10.002;2023-09-18T09:04:34;6.47;;;5.88;;
17345;SDS011;8790;53.590;10.002;2023-09-18T09:07:06;6.30;;;5.70;;
17345;SDS011;8790;53.590;10.002;2023-09-18T09:09:37;6.80;;;6.03;;
17345;SDS011;8790;53.590;10.002;2023-09-18T09:12:09;6.68;;;6.07;;
17345;SDS011;8790;53.590;10.002;2023-09-18T09:14:43;6.75;;;6.10;;
17345;SDS011;8790;53.590;10.002;2023-09-18T09:17:33;6.60;;;5.90;;
17345;SDS011;8790;53.590;10.002;2023-09-18T09:20:08;7.05;;;6.35;;
17345;SDS011;8790;53.590;10.002;2023-09-18T09:22:41;9.75;;;5.97;;
17345;SDS011;8790;53.590;10.002;2023-09-18T09:25:22;7.10;;;5.80;;
17345;SDS011;8790;53.590;10.002;2023-09-18T09:27:56;7.25;;;6.03;;
17345;SDS011;8790;53.590;10.002;2023-09-18T09:30:31;7.85;;;6.13;;
17345;SDS011;8790;53.590;10.002;2023-09-18T09:33:04;6.90;;;6.13;;
17345;SDS011;8790;53.590;10.002;2023-09-18T09:35:36;7.80;;;5.75;;
17345;SDS011;8790;53.590;10.002;2023-09-18T09:38:08;9.90;;;6.13;;
17345;SDS011;8790;53.590;10.002;2023-09-18T09:40:41;7.47;;;6.22;;
17345;SDS011;8790;53.590;10.002;2023-09-18T09:43:13;6.25;;;5.65;;
17345;SDS011;8790;53.590;10.002;2023-09-18T09:45:46;6.68;;;6.07;;
17345;SDS011;8790;53.590;10.002;2023-09-18T09:48:18;7.43;;;5.68;;
17345;SDS011;8790;53.590;10.002;2023-09-18T09:50:51;7.25;;;5.85;;
17345;SDS011;8790;53.590;10.002;2023-09-18T09:53:44;6.78;;;6.00;;
17345;SDS011;8790;53.590;10.002;2023-09-18T09:56:17;6.85;;;5.57;;
17345;SDS011;8790;53.590;10.002;2023-09-18T09:59:01;8.80;;;5.35;;
17345;SDS011;8790;53.590;10.002;2023-09-18T10:01:37;6.63;;;5.47;;
17345;SDS011;8790;53.590;10.002;2023-09-18T10:04:12;6.25;;;5.65;;
17345;SDS011;8790;53.590;10.002;2023-09-18T10:06:47;8.63;;;5.38;;
17345;SDS011;8790;53.590;10.002;2023-09-18T10:09:22;6.35;;;5.03;;
17345;SDS011;8790;53.590;10.002;2023-09-18T10:11:54;7.65;;;5.65;;
17345;SDS011;8790;53.590;10.002;2023-09-18T10:14:29;5.70;;;5.20;;
17345;SDS011;8790;53.590;10.002;2023-09-18T10:17:04;6.32;;;5.32;;
17345;SDS011;8790;53.590;10.002;2023-09-18T10:19:43;6.53;;;5.32;;
17345;SDS011;8790;53.590;10.002;2023-09-18T10:22:19;5.68;;;5.15;;
17345;SDS011;8790;53.590;10.002;2023-09-18T10:24:58;6.78;;;5.68;;
17345;SDS011;8790;53.590;10.002;2023-09-18T10:27:31;6.18;;;5.20;;
17345;SDS011;8790;53.590;10.002;2023-09-18T10:30:04;7.72;;;5.07;;
17345;SDS011;8790;53.590;10.002;2023-09-18T10:32:42;5.30;;;4.75;;
17345;SDS011;8790;53.590;10.002;2023-09-18T10:35:15;6.60;;;5.13;;
17345;SDS011;8790;53.590;10.002;2023-09-18T10:37:49;7.85;;;5.20;;
17345;SDS011;8790;53.590;10.002;2023-09-18T10:40:23;8.73;;;5.32;;
17345;SDS011;8790;53.590;10.002;2023-09-18T10:42:57;6.78;;;5.22;;
17345;SDS011;8790;53.590;10.002;2023-09-18T10:45:29;5.78;;;5.00;;
17345;SDS011;8790;53.590;10.002;2023-09-18T10:48:02;6.18;;;4.93;;
17345;SDS011;8790;53.590;10.002;2023-09-18T10:50:34;5.88;;;5.07;;
17345;SDS011;8790;53.590;10.002;2023-09-18T10:53:06;9.32;;;5.43;;
17345;SDS011;8790;53.590;10.002;2023-09-18T10:55:38;5.82;;;5.20;;
17345;SDS011;8790;53.590;10.002;2023-09-18T10:58:09;7.05;;;4.72;;
17345;SDS011;8790;53.590;10.002;2023-09-18T11:00:41;6.60;;;5.05;;
17345;SDS011;8790;53.590;10.002;2023-09-18T11:03:14;5.97;;;4.82;;
17345;SDS011;8790;53.590;10.002;2023-09-18T11:05:48;6.28;;;5.15;;
17345;SDS011;8790;53.590;10.002;2023-09-18T11:08:24;7.45;;;4.80;;
17345;SDS011;8790;53.590;10.002;2023-09-18T11:11:00;6.38;;;4.47;;
17345;SDS011;8790;53.590;10.002;2023-09-18T11:13:40;6.30;;;4.20;;
17345;SDS011;8790;53.590;10.002;2023-09-18T11:16:19;5.25;;;4.75;;
17345;SDS011;8790;53.590;10.002;2023-09-18T11:19:10;6.55;;;4.68;;
17345;SDS011;8790;53.590;10.002;2023-09-18T11:21:43;7.43;;;4.82;;
17345;SDS011;8790;53.590;10.002;2023-09-18T11:24:16;6.50;;;4.35;;
17345;SDS011;8790;53.590;10.002;2023-09-18T11:26:49;7.63;;;4.93;;
17345;SDS011;8790;53.590;10.002;2023-09-18T11:29:22;8.10;;;4.22;;
17345;SDS011;8790;53.590;10.002;2023-09-18T11:31:56;7.10;;;4.50;;
17345;SDS011;8790;53.590;10.002;2023-09-18T11:34:29;6.28;;;4.07;;
17345;SDS011;8790;53.590;10.002;2023-09-18T11:37:20;4.47;;;3.78;;
17345;SDS011;8790;53.590;10.002;2023-09-18T11:39:51;4.63;;;3.80;;
17345;SDS011;8790;53.590;10.002;2023-09-18T11:42:23;5.13;;;3.97;;
17345;SDS011;8790;53.590;10.002;2023-09-18T11:44:58;6.95;;;4.05;;
17345;SDS011;8790;53.590;10.002;2023-09-18T11:47:30;4.97;;;3.92;;
17345;SDS011;8790;53.590;10.002;2023-09-18T11:50:04;5.55;;;4.05;;
17345;SDS011;8790;53.590;10.002;2023-09-18T11:52:36;5.13;;;3.92;;
17345;SDS011;8790;53.590;10.002;2023-09-18T11:55:08;7.47;;;3.60;;
17345;SDS011;8790;53.590;10.002;2023-09-18T11:57:39;5.00;;;3.72;;
17345;SDS011;8790;53.590;10.002;2023-09-18T12:00:18;5.90;;;3.63;;
17345;SDS011;8790;53.590;10.002;2023-09-18T12:02:53;6.05;;;3.33;;
17345;SDS011;8790;53.590;10.002;2023-09-18T12:05:26;6.38;;;3.75;;
17345;SDS011;8790;53.590;10.002;2023-09-18T12:07:58;5.07;;;3.97;;
17345;SDS011;8790;53.590;10.002;2023-09-18T12:10:29;7.35;;;3.83;;
17345;SDS011;8790;53.590;10.002;2023-09-18T12:13:02;6.20;;;3.60;;
17345;SDS011;8790;53.590;10.002;2023-09-18T12:15:38;6.85;;;3.70;;
17345;SDS011;8790;53.590;10.002;2023-09-18T12:18:10;5.13;;;3.47;;
17345;SDS011;8790;53.590;10.002;2023-09-18T12:20:47;4.70;;;3.47;;
17345;SDS011;8790;53.590;10.002;2023-09-18T12:23:19;5.60;;;3.38;;
17345;SDS011;8790;53.590;10.002;2023-09-18T12:25:56;6.70;;;3.58;;
17345;SDS011;8790;53.590;10.002;2023-09-18T12:28:29;4.10;;;3.70;;
17345;SDS011;8790;53.590;10.002;2023-09-18T12:31:01;5.47;;;3.08;;
17345;SDS011;8790;53.590;10.002;2023-09-18T12:33:35;5.72;;;3.50;;
17345;SDS011;8790;53.590;10.002;2023-09-18T12:36:08;4.18;;;3.13;;
17345;SDS011;8790;53.590;10.002;2023-09-18T12:38:40;5.13;;;3.17;;
17345;SDS011;8790;53.590;10.002;2023-09-18T12:41:11;5.57;;;3.40;;
17345;SDS011;8790;53.590;10.002;2023-09-18T12:43:43;4.93;;;3.17;;
17345;SDS011;8790;53.590;10.002;2023-09-18T12:46:15;6.53;;;3.45;;
17345;SDS011;8790;53.590;10.002;2023-09-18T12:48:48;4.63;;;3.28;;
17345;SDS011;8790;53.590;10.002;2023-09-18T12:51:29;6.78;;;3.20;;
17345;SDS011;8790;53.590;10.002;2023-09-18T12:54:01;6.72;;;3.60;;
17345;SDS011;8790;53.590;10.002;2023-09-18T12:56:39;6.57;;;3.20;;
17345;SDS011;8790;53.590;10.002;2023-09-18T12:59:12;5.97;;;3.10;;
17345;SDS011;8790;53.590;10.002;2023-09-18T13:01:45;5.80;;;3.30;;
17345;SDS011;8790;53.590;10.002;2023-09-18T13:04:18;7.80;;;3.50;;
17345;SDS011;8790;53.590;10.002;2023-09-18T13:07:03;5.60;;;3.20;;
17345;SDS011;8790;53.590;10.002;2023-09-18T13:09:37;5.35;;;3.20;;
17345;SDS011;8790;53.590;10.002;2023-09-18T13:12:09;5.20;;;3.05;;
17345;SDS011;8790;53.590;10.002;2023-09-18T13:14:56;4.60;;;3.03;;
17345;SDS011;8790;53.590;10.002;2023-09-18T13:17:35;4.32;;;2.80;;
17345;SDS011;8790;53.590;10.002;2023-09-18T13:20:11;5.25;;;2.92;;
17345;SDS011;8790;53.590;10.002;2023-09-18T13:22:47;6.32;;;3.38;;
17345;SDS011;8790;53.590;10.002;2023-09-18T13:25:19;5.75;;;2.88;;
17345;SDS011;8790;53.590;10.002;2023-09-18T13:27:53;6.20;;;2.63;;
17345;SDS011;8790;53.590;10.002;2023-09-18T13:30:24;5.60;;;2.70;;
17345;SDS011;8790;53.590;10.002;2023-09-18T13:33:01;6.50;;;2.97;;
17345;SDS011;8790;53.590;10.002;2023-09-18T13:35:33;6.60;;;3.08;;
17345;SDS011;8790;53.590;10.002;2023-09-18T13:38:07;3.30;;;2.45;;
17345;SDS011;8790;53.590;10.002;2023-09-18T13:40:38;4.10;;;2.65;;
17345;SDS011;8790;53.590;10.002;2023-09-18T13:43:10;5.47;;;2.90;;
17345;SDS011;8790;53.590;10.002;2023-09-18T13:45:42;3.30;;;2.97;;
17345;SDS011;8790;53.590;10.002;2023-09-18T13:48:14;5.15;;;2.67;;
17345;SDS011;8790;53.590;10.002;2023-09-18T13:50:46;5.32;;;3.00;;
17345;SDS011;8790;53.590;10.002;2023-09-18T13:53:19;4.57;;;3.03;;
17345;SDS011;8790;53.590;10.002;2023-09-18T13:55:52;4.00;;;3.05;;
17345;SDS011;8790;53.590;10.002;2023-09-18T13:58:26;5.35;;;3.15;;
17345;SDS011;8790;53.590;10.002;2023-09-18T14:00:58;5.32;;;3.28;;
17345;SDS011;8790;53.590;10.002;2023-09-18T14:03:29;4.70;;;3.50;;
17345;SDS011;8790;53.590;10.002;2023-09-18T14:06:02;4.93;;;3.38;;
17345;SDS011;8790;53.590;10.002;2023-09-18T14:08:36;4.90;;;3.40;;
17345;SDS011;8790;53.590;10.002;2023-09-18T14:11:09;3.85;;;3.28;;
17345;SDS011;8790;53.590;10.002;2023-09-18T14:13:41;6.57;;;3.60;;
17345;SDS011;8790;53.590;10.002;2023-09-18T14:16:13;5.47;;;3.80;;
17345;SDS011;8790;53.590;10.002;2023-09-18T14:18:45;4.40;;;3.50;;
17345;SDS011;8790;53.590;10.002;2023-09-18T14:21:19;4.15;;;3.22;;
17345;SDS011;8790;53.590;10.002;2023-09-18T14:23:52;5.30;;;3.72;;
17345;SDS011;8790;53.590;10.002;2023-09-18T14:26:23;4.57;;;3.50;;
17345;SDS011;8790;53.590;10.002;2023-09-18T14:28:55;3.72;;;2.92;;
17345;SDS011;8790;53.590;10.002;2023-09-18T14:31:26;4.82;;;3.65;;
17345;SDS011;8790;53.590;10.002;2023-09-18T14:33:58;3.55;;;3.17;;
17345;SDS011;8790;53.590;10.002;2023-09-18T14:36:30;7.70;;;3.20;;
17345;SDS011;8790;53.590;10.002;2023-09-18T14:39:04;4.38;;;3.10;;
17345;SDS011;8790;53.590;10.002;2023-09-18T14:41:38;4.68;;;3.05;;
17345;SDS011;8790;53.590;10.002;2023-09-18T14:44:09;3.10;;;2.80;;
17345;SDS011;8790;53.590;10.002;2023-09-18T14:46:41;3.72;;;3.13;;
17345;SDS011;8790;53.590;10.002;2023-09-18T14:49:13;3.47;;;2.80;;
17345;SDS011;8790;53.590;10.002;2023-09-18T14:51:44;3.20;;;2.90;;
17345;SDS011;8790;53.590;10.002;2023-09-18T14:54:17;4.35;;;3.40;;
17345;SDS011;8790;53.590;10.002;2023-09-18T14:56:49;4.50;;;3.17;;
17345;SDS011;8790;53.590;10.002;2023-09-18T14:59:20;3.55;;;3.25;;
17345;SDS011;8790;53.590;10.002;2023-09-18T15:01:52;4.05;;;3.17;;
17345;SDS011;8790;53.590;10.002;2023-09-18T15:04:23;4.25;;;3.30;;
17345;SDS011;8790;53.590;10.002;2023-09-18T15:06:55;3.83;;;2.95;;
17345;SDS011;8790;53.590;10.002;2023-09-18T15:09:28;4.28;;;3.05;;
17345;SDS011;8790;53.590;10.002;2023-09-18T15:11:59;3.75;;;2.92;;
17345;SDS011;8790;53.590;10.002;2023-09-18T15:14:31;5.55;;;2.97;;
17345;SDS011;8790;53.590;10.002;2023-09-18T15:17:02;5.10;;;3.63;;
17345;SDS011;8790;53.590;10.002;2023-09-18T15:19:34;5.22;;;3.20;;
17345;SDS011;8790;53.590;10.002;2023-09-18T15:22:05;4.93;;;3.03;;